McKinley Park, Alaska
Current Conditions -  °F | °C
As of 8:16 PM on Friday 28 Nov 2014 (Local Time) from PAIN Reporting Station
Overcast Overcast  
Wind Chill: -14°   Ceiling: 4200
Heat Index: -14°   Visibility: 10mi
Dew Point: -16°   Wind: 0mph
Humidity: 85%   Direction: NA
Pressure: 30.1"   Gusts: NA
Location:  63.73°N, 148.91°W
Report Text: PAIN 290516Z AUTO 00000KT 10SM OVC042 M14/M16 A3010 RMK AO1
Loading
Personal Weather Stations






























Interactive Weather Map New forecast layout! Learn more

10-Day Weather Forecast

Advertisements
Track Severe Weather on mobile